createdAt,value
2018-12-23T00:02:27.248Z,6.90
2018-12-23T00:04:55.319Z,6.90
2018-12-23T00:07:23.187Z,7.00
2018-12-23T00:09:51.056Z,7.10
2018-12-23T00:12:19.031Z,7.10
2018-12-23T00:14:46.798Z,7.30
2018-12-23T00:17:15.226Z,7.30
2018-12-23T00:19:43.044Z,7.20
2018-12-23T00:22:11.018Z,7.20
2018-12-23T00:24:38.879Z,7.30
2018-12-23T00:27:06.653Z,7.30
2018-12-23T00:29:34.617Z,7.30
2018-12-23T00:32:03.613Z,7.20
2018-12-23T00:34:31.480Z,7.30
2018-12-23T00:37:00.372Z,7.30
2018-12-23T00:39:28.243Z,7.20
2018-12-23T00:41:56.109Z,7.00
2018-12-23T00:44:23.980Z,7.00
2018-12-23T00:46:51.846Z,6.90
2018-12-23T00:49:19.716Z,6.90
2018-12-23T00:51:47.789Z,6.80
2018-12-23T00:54:16.025Z,6.60
2018-12-23T00:56:43.933Z,6.60
2018-12-23T00:59:12.215Z,6.60
2018-12-23T01:01:40.287Z,6.60
2018-12-23T01:04:08.053Z,6.70
2018-12-23T01:06:36.226Z,6.70
2018-12-23T01:09:06.193Z,6.70
2018-12-23T01:11:33.925Z,6.70
2018-12-23T01:14:01.879Z,6.80
2018-12-23T01:16:31.183Z,6.70
2018-12-23T01:18:59.364Z,6.70
2018-12-23T01:21:27.433Z,6.70
2018-12-23T01:23:55.298Z,6.80
2018-12-23T01:26:23.167Z,6.80
2018-12-23T01:28:51.452Z,6.70
2018-12-23T01:31:19.829Z,6.60
2018-12-23T01:33:47.899Z,6.70
2018-12-23T01:36:15.771Z,6.70
2018-12-23T01:38:43.535Z,6.70
2018-12-23T01:41:11.403Z,6.60
2018-12-23T01:43:39.373Z,6.50
2018-12-23T01:46:07.090Z,6.40
2018-12-23T01:48:34.836Z,6.30
2018-12-23T01:51:02.556Z,6.20
2018-12-23T01:53:30.441Z,6.20
2018-12-23T01:55:58.705Z,6.10
2018-12-23T01:58:26.587Z,6.00
2018-12-23T02:00:54.564Z,5.80
2018-12-23T02:03:23.020Z,5.70
2018-12-23T02:05:50.801Z,5.70
2018-12-23T02:08:18.775Z,5.70
2018-12-23T02:10:46.539Z,5.70
2018-12-23T02:13:14.407Z,5.70
2018-12-23T02:15:42.334Z,5.70
2018-12-23T02:18:10.037Z,5.70
2018-12-23T02:20:37.970Z,5.70
2018-12-23T02:23:05.780Z,5.80
2018-12-23T02:25:33.644Z,5.80
2018-12-23T02:28:01.513Z,5.80
2018-12-23T02:30:29.485Z,5.90
2018-12-23T02:32:57.353Z,5.90
2018-12-23T02:35:25.153Z,5.90
2018-12-23T02:37:53.297Z,5.90
2018-12-23T02:40:22.298Z,5.90
2018-12-23T02:42:50.261Z,5.90
2018-12-23T02:45:18.234Z,5.80
2018-12-23T02:47:46.000Z,5.80
2018-12-23T02:50:13.869Z,5.90
2018-12-23T02:52:41.738Z,5.90
2018-12-23T02:55:09.603Z,5.90
2018-12-23T02:57:37.369Z,5.80
2018-12-23T03:00:05.774Z,5.70
2018-12-23T03:02:33.625Z,5.70
2018-12-23T03:05:01.485Z,5.60
2018-12-23T03:07:29.815Z,5.50
2018-12-23T03:09:57.938Z,5.50
2018-12-23T03:12:25.806Z,5.40
2018-12-23T03:14:53.780Z,5.40
2018-12-23T03:17:22.423Z,5.30
2018-12-23T03:19:50.614Z,5.40
2018-12-23T03:22:18.405Z,5.40
2018-12-23T03:24:46.684Z,5.40
2018-12-23T03:27:14.450Z,5.40
2018-12-23T03:29:43.341Z,5.40
2018-12-23T03:32:11.531Z,5.40
2018-12-23T03:34:39.488Z,5.40
2018-12-23T03:37:07.357Z,5.40
2018-12-23T03:39:35.224Z,5.40
2018-12-23T03:42:03.096Z,5.40
2018-12-23T03:44:30.963Z,5.50
2018-12-23T03:46:59.698Z,5.50
2018-12-23T03:49:27.519Z,5.50
2018-12-23T03:51:55.385Z,5.40
2018-12-23T03:54:23.869Z,5.40
2018-12-23T03:56:51.737Z,5.30
2018-12-23T03:59:19.617Z,5.20
2018-12-23T04:01:47.473Z,5.10
2018-12-23T04:04:15.324Z,5.00
2018-12-23T04:06:43.213Z,5.00
2018-12-23T04:09:11.588Z,4.90
2018-12-23T04:11:39.668Z,4.90
2018-12-23T04:14:07.736Z,5.00
2018-12-23T04:16:37.557Z,5.10
2018-12-23T04:19:06.142Z,5.20
2018-12-23T04:21:33.918Z,5.30
2018-12-23T04:24:02.387Z,5.40
2018-12-23T04:26:30.156Z,5.50
2018-12-23T04:28:58.073Z,5.50
2018-12-23T04:31:26.914Z,5.50
2018-12-23T04:33:54.984Z,5.50
2018-12-23T04:36:33.846Z,5.50
2018-12-23T04:38:54.822Z,5.50
2018-12-23T04:41:22.684Z,5.50
2018-12-23T04:43:50.571Z,5.50
2018-12-23T04:46:19.343Z,5.50
2018-12-23T04:48:47.109Z,5.50
2018-12-23T04:51:15.084Z,5.50
2018-12-23T04:53:43.053Z,5.50
2018-12-23T04:56:10.919Z,5.40
2018-12-23T04:58:38.891Z,5.40
2018-12-23T05:01:06.762Z,5.40
2018-12-23T05:03:42.592Z,5.40
2018-12-23T05:06:04.431Z,5.40
2018-12-23T05:08:32.209Z,5.40
2018-12-23T05:11:00.780Z,5.30
2018-12-23T05:13:28.660Z,5.30
2018-12-23T05:15:56.534Z,5.30
2018-12-23T05:18:26.138Z,5.40
2018-12-23T05:20:54.828Z,5.40
2018-12-23T05:23:22.899Z,5.50
2018-12-23T05:25:50.767Z,5.50
2018-12-23T05:28:20.802Z,5.50
2018-12-23T05:30:48.755Z,5.50
2018-12-23T05:33:16.628Z,5.60
2018-12-23T05:35:44.493Z,5.60
2018-12-23T05:38:12.565Z,5.60
2018-12-23T05:40:40.845Z,5.70
2018-12-23T05:43:08.816Z,5.80
2018-12-23T05:45:36.582Z,5.80
2018-12-23T05:48:05.326Z,5.80
2018-12-23T05:50:33.209Z,5.70
2018-12-23T05:53:01.064Z,5.60
2018-12-23T05:55:28.461Z,5.60
2018-12-23T05:57:56.642Z,5.70
2018-12-23T06:00:24.512Z,5.60
2018-12-23T06:02:52.478Z,5.70
2018-12-23T06:05:21.271Z,5.80
2018-12-23T06:07:49.751Z,5.70
2018-12-23T06:10:17.618Z,5.80
2018-12-23T06:12:45.900Z,5.80
2018-12-23T06:15:14.380Z,5.80
2018-12-23T06:17:42.250Z,5.80
2018-12-23T06:20:09.996Z,5.80
2018-12-23T06:22:38.091Z,5.80
2018-12-23T06:25:06.270Z,5.80
2018-12-23T06:27:33.981Z,5.80
2018-12-23T06:30:01.917Z,5.90
2018-12-23T06:32:29.765Z,5.90
2018-12-23T06:34:57.632Z,5.90
2018-12-23T06:37:25.501Z,5.90
2018-12-23T06:39:53.455Z,5.90
2018-12-23T06:42:21.236Z,5.90
2018-12-23T06:44:49.207Z,5.90
2018-12-23T06:47:17.998Z,5.90
2018-12-23T06:49:46.284Z,5.80
2018-12-23T06:52:14.454Z,5.90
2018-12-23T06:54:42.525Z,5.90
2018-12-23T06:57:11.986Z,5.90
2018-12-23T06:59:40.441Z,5.90
2018-12-23T07:02:08.285Z,5.90
2018-12-23T07:04:36.193Z,5.90
2018-12-23T07:07:04.882Z,6.00
2018-12-23T07:09:32.706Z,6.00
2018-12-23T07:12:01.590Z,6.00
2018-12-23T07:14:29.467Z,6.10
2018-12-23T07:16:57.819Z,6.10
2018-12-23T07:19:25.925Z,6.10
2018-12-23T07:21:53.686Z,6.20
2018-12-23T07:24:21.504Z,6.20
2018-12-23T07:26:49.464Z,6.20
2018-12-23T07:29:17.548Z,6.30
2018-12-23T07:31:45.368Z,6.30
2018-12-23T07:34:13.334Z,6.30
2018-12-23T07:36:49.375Z,6.30
2018-12-23T07:39:11.221Z,6.30
2018-12-23T07:41:39.299Z,6.30
2018-12-23T07:44:07.168Z,6.40
2018-12-23T07:46:34.994Z,6.40
2018-12-23T07:49:02.849Z,6.40
2018-12-23T07:51:30.856Z,6.40
2018-12-23T07:53:59.461Z,6.30
2018-12-23T07:56:27.429Z,6.30
2018-12-23T07:58:56.109Z,6.30
2018-12-23T08:01:24.091Z,6.30
2018-12-23T08:03:51.959Z,6.30
2018-12-23T08:06:20.027Z,6.30
2018-12-23T08:08:47.997Z,6.40
2018-12-23T08:11:15.971Z,6.40
2018-12-23T08:13:43.943Z,6.50
2018-12-23T08:16:12.288Z,6.60
2018-12-23T08:18:40.191Z,6.70
2018-12-23T08:21:08.876Z,6.80
2018-12-23T08:23:36.960Z,6.90
2018-12-23T08:26:06.444Z,7.00
2018-12-23T08:28:34.737Z,7.10
2018-12-23T08:31:02.603Z,7.10
2018-12-23T08:33:30.469Z,7.20
2018-12-23T08:36:00.133Z,7.20
2018-12-23T08:38:29.179Z,7.30
2018-12-23T08:40:57.456Z,7.30
2018-12-23T08:43:26.859Z,7.20
2018-12-23T08:45:54.794Z,7.20
2018-12-23T08:48:23.311Z,7.20
2018-12-23T08:50:51.285Z,7.20
2018-12-23T08:53:19.149Z,7.30
2018-12-23T08:55:47.431Z,7.20
2018-12-23T08:58:15.300Z,7.30
2018-12-23T09:00:43.372Z,7.30
2018-12-23T09:03:18.641Z,7.30
2018-12-23T09:05:41.363Z,7.40
2018-12-23T09:08:09.230Z,7.40
2018-12-23T09:10:37.513Z,7.40
2018-12-23T09:13:05.551Z,7.40
2018-12-23T09:15:33.332Z,7.40
2018-12-23T09:18:01.705Z,7.50
2018-12-23T09:20:29.918Z,7.50
2018-12-23T09:22:57.871Z,7.50
2018-12-23T09:25:25.949Z,7.50
2018-12-23T09:27:53.819Z,7.60
2018-12-23T09:30:21.684Z,7.60
2018-12-23T09:32:49.550Z,7.60
2018-12-23T09:35:17.419Z,7.60
2018-12-23T09:37:46.208Z,7.70
2018-12-23T09:40:14.076Z,7.70
2018-12-23T09:42:42.051Z,7.70
2018-12-23T09:45:10.384Z,7.70
2018-12-23T09:47:38.499Z,7.70
2018-12-23T09:50:07.129Z,7.70
2018-12-23T09:52:35.159Z,7.70
2018-12-23T09:55:03.594Z,7.70
2018-12-23T09:57:31.715Z,7.70
2018-12-23T09:59:59.488Z,7.70
2018-12-23T10:02:27.453Z,7.80
2018-12-23T10:04:55.530Z,7.80
2018-12-23T10:07:23.600Z,7.80
2018-12-23T10:09:52.900Z,7.90
2018-12-23T10:12:20.664Z,7.90
2018-12-23T10:14:49.560Z,7.90
2018-12-23T10:17:17.747Z,7.90
2018-12-23T10:19:45.915Z,7.90
2018-12-23T10:22:14.708Z,8.00
2018-12-23T10:24:42.675Z,8.10
2018-12-23T10:27:10.593Z,8.00
2018-12-23T10:29:38.615Z,7.90
2018-12-23T10:32:06.788Z,7.90
2018-12-23T10:34:35.172Z,7.80
2018-12-23T10:37:03.055Z,7.70
2018-12-23T10:39:30.909Z,7.70
2018-12-23T10:41:58.982Z,7.70
2018-12-23T10:44:27.155Z,7.70
2018-12-23T10:46:55.231Z,7.70
2018-12-23T10:49:23.313Z,7.80
2018-12-23T10:51:52.135Z,7.90
2018-12-23T10:54:20.177Z,7.90
2018-12-23T10:56:48.292Z,8.00
2018-12-23T10:59:16.594Z,8.00
2018-12-23T11:01:45.207Z,8.10
2018-12-23T11:04:13.999Z,8.20
2018-12-23T11:06:42.584Z,8.20
2018-12-23T11:09:11.375Z,8.20
2018-12-23T11:11:39.494Z,8.30
2018-12-23T11:14:07.831Z,8.30
2018-12-23T11:16:36.387Z,8.40
2018-12-23T11:19:04.666Z,8.40
2018-12-23T11:21:33.271Z,8.40
2018-12-23T11:24:01.579Z,8.40
2018-12-23T11:26:29.832Z,8.40
2018-12-23T11:28:58.003Z,8.40
2018-12-23T11:31:27.002Z,8.40
2018-12-23T11:33:55.178Z,8.40
2018-12-23T11:36:24.235Z,8.40
2018-12-23T11:38:52.456Z,8.50
2018-12-23T11:41:20.525Z,8.50
2018-12-23T11:43:48.388Z,8.50
2018-12-23T11:46:16.306Z,8.50
2018-12-23T11:48:45.217Z,8.50
2018-12-23T11:51:13.226Z,8.50
2018-12-23T11:53:41.294Z,8.40
2018-12-23T11:56:09.998Z,8.50
2018-12-23T11:58:37.851Z,8.50
2018-12-23T12:01:05.925Z,8.50
2018-12-23T12:03:33.693Z,8.50
2018-12-23T12:06:01.780Z,8.50
2018-12-23T12:08:30.259Z,8.60
2018-12-23T12:10:58.116Z,8.60
2018-12-23T12:13:26.294Z,8.60
2018-12-23T12:15:54.163Z,8.60
2018-12-23T12:18:22.139Z,8.60
2018-12-23T12:20:50.660Z,8.60
2018-12-23T12:23:18.687Z,8.60
2018-12-23T12:25:46.868Z,8.60
2018-12-23T12:28:14.942Z,8.70
2018-12-23T12:30:42.807Z,8.70
2018-12-23T12:33:11.009Z,8.60
2018-12-23T12:35:38.848Z,8.60
2018-12-23T12:38:06.821Z,8.70
2018-12-23T12:40:34.789Z,8.60
2018-12-23T12:43:02.601Z,8.60
2018-12-23T12:45:31.551Z,8.60
2018-12-23T12:47:59.798Z,8.70
2018-12-23T12:50:27.803Z,8.70
2018-12-23T12:52:55.976Z,8.80
2018-12-23T12:55:24.032Z,8.80
2018-12-23T12:57:52.020Z,8.80
2018-12-23T13:00:20.094Z,8.70
2018-12-23T13:02:48.067Z,8.70
2018-12-23T13:05:16.039Z,8.70
2018-12-23T13:07:44.875Z,8.70
2018-12-23T13:10:12.794Z,8.70
2018-12-23T13:12:41.097Z,8.70
2018-12-23T13:15:09.329Z,8.70
2018-12-23T13:17:37.116Z,8.50
2018-12-23T13:20:06.241Z,8.40
2018-12-23T13:22:34.083Z,8.20
2018-12-23T13:25:02.134Z,8.20
2018-12-23T13:27:30.749Z,8.20
2018-12-23T13:29:59.263Z,8.20
2018-12-23T13:32:27.286Z,8.20
2018-12-23T13:34:55.680Z,8.30
2018-12-23T13:37:24.504Z,8.30
2018-12-23T13:39:52.649Z,8.30
2018-12-23T13:42:41.479Z,8.40
2018-12-23T13:48:59.984Z,8.40
2018-12-23T13:51:40.795Z,8.50
2018-12-23T13:54:22.211Z,8.50
2018-12-23T13:57:03.663Z,8.50
2018-12-23T13:59:44.694Z,8.60
2018-12-23T14:05:10.644Z,8.40
2018-12-23T14:07:51.571Z,8.30
2018-12-23T14:10:32.622Z,8.20
2018-12-23T14:13:14.887Z,8.20
2018-12-23T14:15:55.973Z,8.10
2018-12-23T14:18:36.632Z,8.00
2018-12-23T14:24:22.237Z,7.90
2018-12-23T14:27:03.752Z,7.80
2018-12-23T14:29:44.961Z,7.70
2018-12-23T14:32:26.089Z,7.70
2018-12-23T14:35:07.864Z,7.60
2018-12-23T14:37:48.906Z,7.60
2018-12-23T14:40:30.495Z,7.50
2018-12-23T14:43:11.703Z,7.50
2018-12-23T14:45:52.521Z,7.40
2018-12-23T14:48:33.789Z,7.40
2018-12-23T14:51:14.938Z,7.40
2018-12-23T14:53:55.688Z,7.40
2018-12-23T14:56:36.872Z,7.40
2018-12-23T14:59:18.415Z,7.30
2018-12-23T15:01:59.369Z,7.30
2018-12-23T15:04:40.766Z,7.30
2018-12-23T15:07:22.383Z,7.30
2018-12-23T15:10:03.965Z,7.30
2018-12-23T15:12:45.510Z,7.20
2018-12-23T15:15:26.809Z,7.30
2018-12-23T15:18:07.632Z,7.20
2018-12-23T15:20:49.208Z,7.10
2018-12-23T15:23:28.547Z,7.20
2018-12-23T15:26:30.320Z,7.20
2018-12-23T15:28:59.574Z,7.20
2018-12-23T15:31:40.522Z,7.20
2018-12-23T15:34:21.983Z,7.20
2018-12-23T15:37:03.304Z,7.10
2018-12-23T15:39:44.384Z,7.10
2018-12-23T15:42:25.473Z,7.10
2018-12-23T15:45:06.423Z,7.20
2018-12-23T15:47:47.706Z,7.20
2018-12-23T15:50:28.918Z,7.10
2018-12-23T15:53:09.625Z,7.10
2018-12-23T15:55:38.750Z,7.10
2018-12-23T15:58:41.082Z,7.10
2018-12-23T16:01:10.480Z,7.10
2018-12-23T16:03:51.287Z,7.00
2018-12-23T16:06:32.077Z,7.00
2018-12-23T16:09:13.250Z,7.00
2018-12-23T16:11:54.541Z,6.90
2018-12-23T16:14:36.040Z,6.90
2018-12-23T16:17:05.137Z,6.90
2018-12-23T16:19:53.665Z,6.90
2018-12-23T16:22:34.335Z,6.90
2018-12-23T16:25:15.299Z,6.90
2018-12-23T16:27:56.134Z,6.90
2018-12-23T16:30:37.180Z,6.80
2018-12-23T16:33:18.632Z,6.80
2018-12-23T16:36:01.671Z,6.70
2018-12-23T16:38:42.705Z,6.70
2018-12-23T16:41:24.383Z,6.70
2018-12-23T16:44:05.244Z,6.60
2018-12-23T16:46:46.494Z,6.60
2018-12-23T16:49:27.578Z,6.50
2018-12-23T16:52:08.674Z,6.50
2018-12-23T16:54:49.827Z,6.50
2018-12-23T16:57:31.281Z,6.50
2018-12-23T17:00:12.240Z,6.50
2018-12-23T17:02:54.216Z,6.50
2018-12-23T17:05:36.503Z,6.50
2018-12-23T17:08:18.150Z,6.50
2018-12-23T17:10:58.560Z,6.50
2018-12-23T17:13:39.970Z,6.50
2018-12-23T17:16:09.152Z,6.50
2018-12-23T17:18:57.801Z,6.50
2018-12-23T17:24:35.708Z,6.50
2018-12-23T17:27:05.162Z,6.50
2018-12-23T17:29:34.424Z,6.50
2018-12-23T17:35:15.080Z,6.40
2018-12-23T17:37:55.880Z,6.40
2018-12-23T17:40:37.088Z,6.40
2018-12-23T17:43:06.367Z,6.40
2018-12-23T17:45:35.676Z,6.40
2018-12-23T17:48:05.170Z,6.40
2018-12-23T17:50:34.360Z,6.40
2018-12-23T17:53:37.706Z,6.40
2018-12-23T17:56:06.026Z,6.50
2018-12-23T17:58:47.520Z,6.40
2018-12-23T18:01:28.522Z,6.50
2018-12-23T18:04:09.418Z,6.40
2018-12-23T18:06:50.509Z,6.40
2018-12-23T18:09:31.640Z,6.40
2018-12-23T18:12:11.295Z,6.40
2018-12-23T18:14:53.053Z,6.40
2018-12-23T18:17:33.976Z,6.40
2018-12-23T18:20:15.357Z,6.40
2018-12-23T18:22:44.758Z,6.30
2018-12-23T18:25:33.406Z,6.30
2018-12-23T18:31:11.521Z,6.40
2018-12-23T18:33:52.811Z,6.40
2018-12-23T18:36:34.539Z,6.30
2018-12-23T18:39:05.744Z,6.30
2018-12-23T18:41:35.006Z,6.30
2018-12-23T18:50:13.750Z,6.40
2018-12-23T18:52:55.284Z,6.30
2018-12-23T18:55:37.057Z,6.30
2018-12-23T18:58:18.334Z,6.30
2018-12-23T19:00:59.326Z,6.30
2018-12-23T19:03:41.065Z,6.30
2018-12-23T19:06:10.387Z,6.30
2018-12-23T19:12:05.663Z,6.30
2018-12-23T19:14:47.271Z,6.30
2018-12-23T19:17:28.988Z,6.30
2018-12-23T19:20:33.088Z,6.30
2018-12-23T19:23:40.910Z,6.30
2018-12-23T19:26:48.584Z,6.30
2018-12-23T19:29:29.759Z,6.30
2018-12-23T19:32:10.731Z,6.30
2018-12-23T19:34:51.806Z,6.40
2018-12-23T19:37:32.651Z,6.40
2018-12-23T19:40:13.645Z,6.40
2018-12-23T19:42:56.119Z,6.50
2018-12-23T19:45:38.201Z,6.40
2018-12-23T19:48:28.287Z,6.40
2018-12-23T19:51:10.151Z,6.50
2018-12-23T19:53:51.868Z,6.50
2018-12-23T19:56:33.411Z,6.50
2018-12-23T19:59:14.579Z,6.50
2018-12-23T20:01:56.273Z,6.50
2018-12-23T20:04:37.564Z,6.60
2018-12-23T20:07:46.457Z,6.60
2018-12-23T20:10:27.308Z,6.60
2018-12-23T20:13:08.879Z,6.70
2018-12-23T20:15:59.185Z,6.70
2018-12-23T20:18:40.870Z,6.70
2018-12-23T20:21:22.029Z,6.80
2018-12-23T20:24:03.209Z,6.80
2018-12-23T20:26:44.831Z,6.90
2018-12-23T20:29:26.182Z,6.90
2018-12-23T20:32:07.368Z,6.90
2018-12-23T20:35:15.229Z,7.00
2018-12-23T20:38:23.178Z,7.00
2018-12-23T20:41:07.698Z,7.10
2018-12-23T20:43:47.810Z,7.10
2018-12-23T20:46:29.350Z,7.10
2018-12-23T20:49:11.085Z,7.20
2018-12-23T20:51:52.347Z,7.20
2018-12-23T20:54:33.860Z,7.30
2018-12-23T20:57:16.074Z,7.30
2018-12-23T20:59:57.501Z,7.30
2018-12-23T21:02:39.666Z,7.30
2018-12-23T21:05:12.053Z,7.40
2018-12-23T21:08:20.077Z,7.40
2018-12-23T21:14:09.879Z,7.40
2018-12-23T21:16:51.152Z,7.50
2018-12-23T21:19:32.832Z,7.50
2018-12-23T21:22:13.865Z,7.60
2018-12-23T21:24:54.671Z,7.60
2018-12-23T21:27:36.434Z,7.80
2018-12-23T21:30:29.786Z,7.90
2018-12-23T21:33:10.979Z,8.30
2018-12-23T21:35:51.969Z,8.60
2018-12-23T21:38:33.756Z,8.90
2018-12-23T21:41:15.521Z,9.10
2018-12-23T21:43:56.434Z,9.30
2018-12-23T21:50:05.025Z,9.60
2018-12-23T21:52:45.853Z,9.60
2018-12-23T21:55:27.049Z,9.60
2018-12-23T21:58:08.239Z,9.70
2018-12-23T22:00:58.195Z,9.80
2018-12-23T22:04:05.800Z,9.80
2018-12-23T22:06:47.064Z,9.90
2018-12-23T22:09:28.392Z,10.00
2018-12-23T22:18:07.354Z,10.40
2018-12-23T22:20:48.724Z,10.40
2018-12-23T22:23:30.035Z,10.50
2018-12-23T22:26:11.157Z,10.50
2018-12-23T22:28:52.117Z,10.60
2018-12-23T22:31:33.442Z,10.70
2018-12-23T22:34:02.634Z,10.70
2018-12-23T22:36:32.607Z,10.80
2018-12-23T22:39:01.684Z,10.90
2018-12-23T22:41:30.928Z,11.00
2018-12-23T22:44:00.002Z,10.90
2018-12-23T22:46:30.168Z,10.90
2018-12-23T22:48:59.265Z,10.90
2018-12-23T22:51:29.836Z,10.90
2018-12-23T22:53:59.015Z,10.80
2018-12-23T22:56:28.088Z,10.70
2018-12-23T22:58:57.090Z,10.70
2018-12-23T23:01:26.334Z,10.80
2018-12-23T23:03:55.793Z,10.80
2018-12-23T23:06:24.932Z,10.80
2018-12-23T23:08:53.991Z,10.80
2018-12-23T23:11:23.021Z,10.90
2018-12-23T23:13:52.381Z,10.80
2018-12-23T23:16:21.407Z,10.80
2018-12-23T23:18:50.436Z,10.80
2018-12-23T23:21:19.476Z,10.80
2018-12-23T23:23:48.806Z,10.80
2018-12-23T23:26:18.718Z,10.80
2018-12-23T23:28:47.905Z,10.80
2018-12-23T23:31:16.893Z,10.90
2018-12-23T23:33:46.568Z,10.90
2018-12-23T23:36:15.627Z,11.00
2018-12-23T23:38:44.629Z,11.00
2018-12-23T23:41:13.747Z,11.00
2018-12-23T23:43:42.707Z,11.00
2018-12-23T23:46:11.688Z,10.90
2018-12-23T23:48:40.729Z,11.00
2018-12-23T23:51:09.866Z,11.00
2018-12-23T23:53:38.942Z,11.00
2018-12-23T23:56:07.914Z,11.10
2018-12-23T23:58:36.913Z,11.00
